Terminal Aerodrome Forecast
Issued by NWS Sterling, VA

Home | Current Version | Previous Version | Text Only | Print | Product List | Glossary On
Versions: 1 2 3 4 5 6 7 8 9 10 11 12 13 14 15 16
000
FTUS41 KLWX 221700
TAFMRB
TAF
KMRB 221735Z 2218/2318 30012G19KT P6SM SCT045
     FM222100 31007KT P6SM FEW040
     FM230200 VRB03KT P6SM FEW040
     FM231200 35005KT P6SM SKC=

USA.gov is the U.S. government's official web portal to all federal, state and local government web resources and services.